Time;durP1;ratioP1;P1;durP2;ratioP2;P2;SDS_P1;SDS_P2;PMS_P1;PMS_P2;Temp;Humidity;BMP_temperature;BMP_pressure;BME280_temperature;BME280_humidity;BME280_pressure;Samples;Min_cycle;Max_cycle;Signal;HPM_P1;HPM_P2
2023/05/25 00:00:19;;;;;;;15.23;3.95;;;12.50;99.90;;;;;;4183320;28;20179;-92
2023/05/25 00:02:23;;;;;;;13.40;3.67;;;12.50;99.90;;;;;;4166527;28;20168;-95
2023/05/25 00:04:25;;;;;;;12.45;3.45;;;12.50;99.90;;;;;;4166788;28;20179;-92
2023/05/25 00:06:26;;;;;;;11.57;3.80;;;12.50;99.90;;;;;;4182913;28;20199;-91
2023/05/25 00:08:28;;;;;;;13.00;3.75;;;12.60;99.90;;;;;;4183166;28;20172;-93
2023/05/25 00:10:29;;;;;;;18.35;4.15;;;12.60;99.90;;;;;;4183150;28;20176;-93
2023/05/25 00:12:29;;;;;;;15.70;3.60;;;12.50;99.90;;;;;;4166585;28;20180;-93
2023/05/25 00:14:30;;;;;;;10.32;4.20;;;12.70;99.90;;;;;;4166452;28;20215;-92
2023/05/25 00:16:36;;;;;;;18.98;3.92;;;12.60;99.90;;;;;;4166544;28;20196;-92
2023/05/25 00:18:36;;;;;;;14.77;3.70;;;12.60;99.90;;;;;;4166623;28;20172;-90
2023/05/25 00:20:38;;;;;;;14.23;3.85;;;12.60;99.90;;;;;;4182584;28;20178;-93
2023/05/25 00:22:43;;;;;;;12.30;3.78;;;12.50;99.90;;;;;;4166581;28;20175;-92
2023/05/25 00:24:44;;;;;;;10.00;3.97;;;12.50;99.90;;;;;;4166651;28;20212;-93
2023/05/25 00:26:46;;;;;;;13.30;3.72;;;12.30;99.90;;;;;;4182971;28;20340;-90
2023/05/25 00:28:47;;;;;;;12.40;3.95;;;12.30;99.90;;;;;;4166593;28;20164;-91
2023/05/25 00:30:48;;;;;;;17.88;4.38;;;12.20;99.90;;;;;;4166266;28;20182;-92
2023/05/25 00:32:49;;;;;;;13.32;3.90;;;12.20;99.90;;;;;;4166311;28;20164;-92
2023/05/25 00:34:49;;;;;;;14.50;4.40;;;12.20;99.90;;;;;;4182610;28;20308;-94
2023/05/25 00:36:52;;;;;;;10.50;3.85;;;12.20;99.90;;;;;;4166172;28;20219;-89
2023/05/25 00:38:53;;;;;;;15.20;3.80;;;12.30;99.90;;;;;;4166398;28;20175;-92
2023/05/25 00:40:56;;;;;;;11.75;4.30;;;12.20;99.90;;;;;;4182665;28;20190;-92
2023/05/25 00:42:58;;;;;;;16.52;4.45;;;12.20;99.90;;;;;;4166321;28;20545;-94
2023/05/25 00:44:59;;;;;;;14.50;4.90;;;12.20;99.90;;;;;;4166234;28;20195;-92
2023/05/25 00:47:03;;;;;;;12.57;4.03;;;12.30;99.90;;;;;;4165978;28;20198;-93
2023/05/25 00:49:04;;;;;;;16.80;4.50;;;12.10;99.90;;;;;;4165847;28;20259;-94
2023/05/25 00:51:06;;;;;;;15.38;4.40;;;12.20;99.90;;;;;;4165671;28;20184;-92
2023/05/25 00:53:09;;;;;;;16.60;4.63;;;12.10;99.90;;;;;;4166001;28;20645;-93
2023/05/25 00:55:14;;;;;;;12.55;4.50;;;12.10;99.90;;;;;;4166090;28;20604;-92
2023/05/25 00:57:19;;;;;;;14.10;4.13;;;11.90;99.90;;;;;;4165987;28;20243;-92
2023/05/25 00:59:48;;;;;;;15.48;4.70;;;12.00;99.90;;;;;;4166060;28;20203;-93
2023/05/25 01:01:52;;;;;;;15.60;4.53;;;12.00;99.90;;;;;;4182123;28;20313;-93
2023/05/25 01:03:56;;;;;;;12.38;4.32;;;12.00;99.90;;;;;;4165992;28;20164;-93
2023/05/25 01:05:58;;;;;;;13.57;4.30;;;12.00;99.90;;;;;;4182338;28;20199;-93
2023/05/25 01:08:02;;;;;;;18.43;5.60;;;12.00;99.90;;;;;;4165752;28;20164;-93
2023/05/25 01:10:08;;;;;;;12.15;4.50;;;12.10;99.90;;;;;;4165443;28;20176;-92
2023/05/25 01:12:10;;;;;;;13.45;4.35;;;12.10;99.90;;;;;;4165719;28;20230;-93
2023/05/25 01:14:17;;;;;;;15.13;4.72;;;12.00;99.90;;;;;;4182051;28;20207;-93
2023/05/25 01:16:19;;;;;;;16.55;5.07;;;12.00;99.90;;;;;;4165640;28;20184;-92
2023/05/25 01:18:20;;;;;;;15.43;4.90;;;11.90;99.90;;;;;;4182175;28;20559;-92
2023/05/25 01:20:21;;;;;;;13.55;4.78;;;11.90;99.90;;;;;;4165523;28;20211;-93
2023/05/25 01:22:26;;;;;;;14.55;4.55;;;11.90;99.90;;;;;;4165296;28;20164;-93
2023/05/25 01:24:31;;;;;;;12.73;4.77;;;11.90;99.90;;;;;;4165492;28;20183;-92
2023/05/25 01:26:47;;;;;;;18.17;5.10;;;11.90;99.90;;;;;;4165458;28;20204;-94
2023/05/25 01:28:51;;;;;;;17.15;5.00;;;11.90;99.90;;;;;;4165738;28;20196;-92
2023/05/25 01:30:55;;;;;;;11.93;4.97;;;11.90;99.90;;;;;;4181897;28;20171;-93
2023/05/25 01:32:56;;;;;;;16.02;4.78;;;11.90;99.90;;;;;;4165422;28;20234;-92
2023/05/25 01:34:59;;;;;;;15.38;4.55;;;11.80;99.90;;;;;;4181555;28;20298;-93
2023/05/25 01:37:01;;;;;;;13.98;4.82;;;11.90;99.90;;;;;;4165301;28;20176;-92
2023/05/25 01:39:04;;;;;;;18.08;5.30;;;11.90;99.90;;;;;;4181916;28;20262;-92
2023/05/25 01:41:05;;;;;;;14.85;4.82;;;11.80;99.90;;;;;;4165250;28;20168;-92
2023/05/25 01:43:06;;;;;;;17.17;4.45;;;11.80;99.90;;;;;;4181709;28;20671;-92
2023/05/25 01:45:09;;;;;;;12.48;4.68;;;11.80;99.90;;;;;;4165230;28;20181;-93
2023/05/25 01:47:15;;;;;;;17.47;5.50;;;11.80;99.90;;;;;;4181596;28;20176;-94
2023/05/25 01:49:28;;;;;;;15.30;5.10;;;11.70;99.90;;;;;;4165025;28;20179;-92
2023/05/25 01:52:01;;;;;;;18.42;5.45;;;11.70;99.90;;;;;;4165010;28;20176;-94
2023/05/25 01:54:17;;;;;;;20.77;4.97;;;11.70;99.90;;;;;;4181537;28;20190;-91
2023/05/25 01:56:20;;;;;;;21.42;5.40;;;11.70;99.90;;;;;;4165064;28;20214;-90
2023/05/25 01:58:23;;;;;;;18.00;5.57;;;11.70;99.90;;;;;;4181750;28;20168;-92
2023/05/25 02:00:26;;;;;;;15.05;5.00;;;11.60;99.90;;;;;;4164990;28;20175;-93
2023/05/25 02:02:27;;;;;;;23.00;5.55;;;11.40;99.90;;;;;;4181214;28;20179;-93
2023/05/25 02:04:29;;;;;;;17.13;4.53;;;11.30;99.90;;;;;;4164972;28;20176;-93
2023/05/25 02:06:30;;;;;;;14.70;4.70;;;11.30;99.90;;;;;;4181101;28;20291;-92
2023/05/25 02:08:34;;;;;;;16.95;4.88;;;11.20;99.90;;;;;;4165249;28;20699;-93
2023/05/25 02:10:35;;;;;;;16.08;5.13;;;11.40;99.90;;;;;;4181150;28;20197;-93
2023/05/25 02:12:36;;;;;;;16.33;4.87;;;11.50;99.90;;;;;;4164967;28;20223;-93
2023/05/25 02:14:37;;;;;;;18.13;5.22;;;11.50;99.90;;;;;;4164713;28;20696;-93
2023/05/25 02:16:38;;;;;;;20.83;5.30;;;11.60;99.90;;;;;;4164145;28;20168;-91
2023/05/25 02:18:39;;;;;;;10.93;4.50;;;11.60;99.90;;;;;;4164839;28;20210;-92
2023/05/25 02:20:40;;;;;;;13.10;4.95;;;11.60;99.90;;;;;;4164732;28;20168;-92
2023/05/25 02:22:41;;;;;;;18.67;4.65;;;11.60;99.90;;;;;;4164758;28;20309;-90
2023/05/25 02:24:41;;;;;;;14.70;4.97;;;11.50;99.90;;;;;;4181084;28;20168;-94
2023/05/25 02:26:42;;;;;;;20.40;5.57;;;11.50;99.90;;;;;;4181260;28;20604;-92
2023/05/25 02:28:43;;;;;;;18.83;4.63;;;11.50;99.90;;;;;;4164524;28;20179;-93
2023/05/25 02:30:44;;;;;;;18.48;5.50;;;11.50;99.90;;;;;;4164655;28;20600;-92
2023/05/25 02:32:45;;;;;;;17.10;4.78;;;11.60;99.90;;;;;;4164912;28;20178;-92
2023/05/25 02:34:46;;;;;;;15.57;5.30;;;11.60;99.90;;;;;;4181238;28;20219;-94
2023/05/25 02:36:47;;;;;;;16.37;5.53;;;11.60;99.90;;;;;;4164631;28;20263;-93
2023/05/25 02:38:51;;;;;;;18.75;5.40;;;11.60;99.90;;;;;;4164512;28;20172;-94
2023/05/25 02:40:52;;;;;;;14.90;5.10;;;11.60;99.90;;;;;;4164328;28;20172;-93
2023/05/25 02:42:54;;;;;;;15.67;4.57;;;11.60;99.90;;;;;;4181025;28;20175;-94
2023/05/25 02:44:56;;;;;;;16.90;4.83;;;11.60;99.90;;;;;;4164606;28;20263;-93
2023/05/25 02:46:57;;;;;;;16.85;5.60;;;11.30;99.90;;;;;;4164491;28;20179;-94
2023/05/25 02:48:58;;;;;;;19.08;5.45;;;11.50;99.90;;;;;;4164407;28;20199;-93
2023/05/25 02:50:59;;;;;;;16.13;5.90;;;11.50;99.90;;;;;;4181060;28;20176;-93
2023/05/25 02:53:00;;;;;;;19.07;5.77;;;11.40;99.90;;;;;;4180848;28;20259;-92
2023/05/25 02:55:02;;;;;;;19.40;6.03;;;11.50;99.90;;;;;;4180702;28;20219;-94
2023/05/25 02:57:09;;;;;;;20.70;5.03;;;11.50;99.90;;;;;;4165384;28;20181;-93
2023/05/25 02:59:11;;;;;;;22.52;6.03;;;11.40;99.90;;;;;;4180852;28;20250;-93
2023/05/25 03:01:17;;;;;;;20.37;5.93;;;11.40;99.90;;;;;;4164336;28;20219;-91
2023/05/25 03:03:19;;;;;;;17.33;6.20;;;11.30;99.90;;;;;;4164523;28;20171;-94
2023/05/25 03:05:20;;;;;;;22.90;6.33;;;11.20;99.90;;;;;;4164300;28;20188;-93
2023/05/25 03:07:21;;;;;;;23.13;6.20;;;11.20;99.90;;;;;;4164197;28;20678;-92
2023/05/25 03:09:22;;;;;;;18.93;7.00;;;11.30;99.90;;;;;;4164329;28;20195;-92
2023/05/25 03:11:24;;;;;;;24.63;6.80;;;11.20;99.90;;;;;;4180741;28;20207;-92
2023/05/25 03:13:25;;;;;;;26.07;6.67;;;11.20;99.90;;;;;;4164319;28;20165;-90
2023/05/25 03:15:26;;;;;;;19.20;6.73;;;11.20;99.90;;;;;;4180610;28;20223;-93
2023/05/25 03:17:27;;;;;;;27.27;7.27;;;11.20;99.90;;;;;;4164464;28;20169;-94
2023/05/25 03:19:27;;;;;;;27.53;6.63;;;11.20;99.90;;;;;;4164409;28;20173;-93
2023/05/25 03:21:28;;;;;;;26.20;7.03;;;11.10;99.90;;;;;;4164209;28;20731;-91
2023/05/25 03:23:29;;;;;;;15.50;6.73;;;11.10;99.90;;;;;;4180702;28;20676;-94
2023/05/25 03:25:31;;;;;;;28.37;7.07;;;11.10;99.90;;;;;;4164118;28;20195;-93
2023/05/25 03:27:34;;;;;;;24.47;7.67;;;11.20;99.90;;;;;;4180841;28;20204;-93
2023/05/25 03:29:35;;;;;;;22.37;6.73;;;11.20;99.90;;;;;;4167233;28;20164;-92
2023/05/25 03:31:35;;;;;;;25.70;7.27;;;11.20;99.90;;;;;;4183824;28;20171;-92
2023/05/25 03:33:37;;;;;;;27.30;7.10;;;11.10;99.90;;;;;;4167301;28;20224;-94
2023/05/25 03:35:38;;;;;;;20.90;6.70;;;11.20;99.90;;;;;;4183589;28;20706;-93
2023/05/25 03:37:39;;;;;;;26.63;7.45;;;11.10;99.90;;;;;;4166986;28;20229;-93
2023/05/25 03:39:39;;;;;;;26.47;7.70;;;11.20;99.90;;;;;;4167048;28;20267;-93
2023/05/25 03:41:41;;;;;;;21.70;7.17;;;11.30;99.90;;;;;;4183648;28;20171;-93
2023/05/25 03:43:42;;;;;;;24.60;7.17;;;11.30;99.90;;;;;;4183625;28;20706;-93
2023/05/25 03:45:44;;;;;;;31.50;7.90;;;11.40;99.90;;;;;;4167074;28;20195;-91
2023/05/25 03:47:45;;;;;;;21.63;7.10;;;11.40;99.90;;;;;;4167220;28;20173;-93
2023/05/25 03:49:46;;;;;;;21.93;7.00;;;11.40;99.90;;;;;;4183329;28;20171;-93
2023/05/25 03:51:47;;;;;;;25.50;7.65;;;11.40;99.90;;;;;;4166737;28;20260;-93
2023/05/25 03:53:48;;;;;;;22.10;7.80;;;11.30;99.90;;;;;;4183283;28;20178;-94
2023/05/25 03:55:50;;;;;;;24.63;7.13;;;11.30;99.90;;;;;;4183228;28;20227;-92
2023/05/25 03:57:51;;;;;;;18.20;7.30;;;11.20;99.90;;;;;;4183704;28;20168;-91
2023/05/25 03:59:52;;;;;;;22.50;7.43;;;11.20;99.90;;;;;;4166761;28;20180;-94
2023/05/25 04:01:53;;;;;;;21.90;6.77;;;11.30;99.90;;;;;;4166946;28;20564;-92
2023/05/25 04:03:55;;;;;;;23.40;7.27;;;11.10;99.90;;;;;;4166864;28;20180;-91
2023/05/25 04:05:57;;;;;;;24.13;7.43;;;11.20;99.90;;;;;;4183209;28;20191;-91
2023/05/25 04:07:58;;;;;;;31.03;7.20;;;11.30;99.90;;;;;;4166741;28;20691;-93
2023/05/25 04:09:59;;;;;;;21.63;7.20;;;11.30;99.90;;;;;;4166896;28;20204;-94
2023/05/25 04:12:01;;;;;;;27.60;8.10;;;11.20;99.90;;;;;;4166572;28;20195;-92
2023/05/25 04:14:02;;;;;;;21.37;7.50;;;11.30;99.90;;;;;;4166534;28;20169;-91
2023/05/25 04:16:06;;;;;;;22.80;7.60;;;11.40;99.90;;;;;;4166956;28;20200;-91
2023/05/25 04:18:07;;;;;;;30.00;7.70;;;11.60;99.90;;;;;;4182994;28;20190;-94
2023/05/25 04:20:08;;;;;;;20.37;6.63;;;11.60;99.90;;;;;;4166551;28;20176;-92
2023/05/25 04:22:09;;;;;;;27.27;7.60;;;11.60;99.90;;;;;;4166297;28;20164;-92
2023/05/25 04:24:10;;;;;;;27.20;7.93;;;11.60;99.90;;;;;;4182948;28;20217;-93
2023/05/25 04:26:12;;;;;;;19.77;7.60;;;11.50;99.90;;;;;;4182833;28;20229;-93
2023/05/25 04:28:15;;;;;;;21.17;7.03;;;11.60;99.90;;;;;;4183260;28;20179;-94
2023/05/25 04:30:24;;;;;;;20.80;7.43;;;11.50;99.90;;;;;;4167260;28;20227;-92
2023/05/25 04:32:47;;;;;;;21.37;6.53;;;11.50;99.90;;;;;;4169436;28;20211;-94
2023/05/25 04:34:58;;;;;;;25.07;6.93;;;11.40;99.90;;;;;;4167561;28;20305;-92
2023/05/25 04:37:07;;;;;;;23.37;7.50;;;11.60;99.90;;;;;;4167061;28;20178;-93
2023/05/25 04:39:08;;;;;;;19.93;6.93;;;11.70;99.90;;;;;;4166111;28;20698;-94
2023/05/25 04:41:14;;;;;;;23.40;7.17;;;11.70;99.90;;;;;;4182199;28;20545;-93
2023/05/25 04:43:19;;;;;;;20.17;7.03;;;11.60;99.90;;;;;;4166601;28;20259;-93
2023/05/25 04:45:20;;;;;;;24.93;6.80;;;11.70;99.90;;;;;;4166143;28;20218;-94
2023/05/25 04:47:23;;;;;;;21.50;7.23;;;11.80;99.90;;;;;;4166083;28;20234;-94
2023/05/25 04:49:25;;;;;;;22.27;7.23;;;12.00;99.90;;;;;;4166042;28;20172;-94
2023/05/25 04:51:26;;;;;;;21.92;6.97;;;12.00;99.90;;;;;;4166167;28;20176;-94
2023/05/25 04:53:27;;;;;;;25.33;7.13;;;12.00;99.90;;;;;;4166106;28;20208;-89
2023/05/25 04:55:28;;;;;;;23.07;6.73;;;12.00;99.90;;;;;;4165547;28;20265;-93
2023/05/25 04:57:30;;;;;;;25.27;7.70;;;12.00;99.90;;;;;;4182392;28;20277;-92
2023/05/25 04:59:31;;;;;;;25.50;7.83;;;12.00;99.90;;;;;;4165827;28;20183;-91
2023/05/25 05:01:33;;;;;;;19.15;6.97;;;12.00;99.90;;;;;;4165563;28;20262;-93
2023/05/25 05:03:36;;;;;;;17.63;7.37;;;12.00;99.90;;;;;;4166104;28;20621;-92
2023/05/25 05:05:38;;;;;;;22.63;7.10;;;12.00;99.90;;;;;;4182224;28;20219;-93
2023/05/25 05:07:42;;;;;;;20.23;7.00;;;11.90;99.90;;;;;;4165909;28;20199;-92
2023/05/25 05:09:44;;;;;;;25.90;8.10;;;12.00;99.90;;;;;;4182155;28;20225;-94
2023/05/25 05:11:45;;;;;;;27.87;7.50;;;12.00;99.90;;;;;;4166105;28;20187;-91
2023/05/25 05:13:47;;;;;;;31.40;7.33;;;12.10;99.90;;;;;;4165829;28;20180;-93
2023/05/25 05:15:47;;;;;;;21.63;7.67;;;12.00;99.90;;;;;;4182033;28;20242;-91
2023/05/25 05:17:48;;;;;;;29.00;7.73;;;12.00;99.90;;;;;;4165734;28;20175;-92
2023/05/25 05:19:49;;;;;;;18.10;7.45;;;11.90;99.90;;;;;;4165486;28;20192;-95
2023/05/25 05:21:50;;;;;;;27.93;7.23;;;11.80;99.90;;;;;;4182080;28;20194;-92
2023/05/25 05:23:52;;;;;;;21.27;7.30;;;11.70;99.90;;;;;;4165654;28;20199;-94
2023/05/25 05:25:53;;;;;;;17.80;6.87;;;11.80;99.90;;;;;;4181903;28;20562;-92
2023/05/25 05:27:54;;;;;;;22.50;7.47;;;11.90;99.90;;;;;;4165830;28;20182;-93
2023/05/25 05:30:01;;;;;;;18.77;7.43;;;11.90;99.90;;;;;;4166234;28;20172;-91
2023/05/25 05:32:02;;;;;;;23.47;7.33;;;11.80;99.90;;;;;;4165890;28;20180;-93
2023/05/25 05:34:03;;;;;;;28.38;7.50;;;11.80;99.90;;;;;;4165669;28;20282;-89
2023/05/25 05:36:05;;;;;;;22.52;7.15;;;11.90;99.90;;;;;;4165759;28;20346;-94
2023/05/25 05:38:07;;;;;;;26.63;7.33;;;12.00;99.90;;;;;;4165338;28;20176;-94
2023/05/25 05:40:08;;;;;;;24.13;7.25;;;12.10;99.90;;;;;;4182030;28;20235;-92
2023/05/25 05:42:10;;;;;;;23.33;7.55;;;12.20;99.90;;;;;;4181889;28;20179;-93
2023/05/25 05:44:11;;;;;;;19.95;6.70;;;12.40;99.90;;;;;;4165269;28;20548;-89
2023/05/25 05:46:12;;;;;;;20.73;7.00;;;12.40;99.90;;;;;;4165026;28;20199;-93
2023/05/25 05:48:14;;;;;;;21.15;7.10;;;12.40;99.90;;;;;;4165290;28;20628;-89
2023/05/25 05:50:15;;;;;;;21.17;6.70;;;12.40;99.90;;;;;;4181699;28;20186;-89
2023/05/25 05:52:16;;;;;;;30.52;7.72;;;12.40;99.90;;;;;;4164036;28;20176;-89
2023/05/25 05:54:17;;;;;;;21.00;7.03;;;12.50;99.90;;;;;;4181543;28;20176;-89
2023/05/25 05:56:18;;;;;;;22.35;7.10;;;12.70;99.90;;;;;;4165177;28;20207;-89
2023/05/25 05:58:20;;;;;;;22.20;7.40;;;12.70;99.90;;;;;;4165388;28;20172;-89
2023/05/25 06:00:21;;;;;;;24.98;7.38;;;12.60;99.90;;;;;;4181249;28;20263;-94
2023/05/25 06:02:24;;;;;;;20.43;6.93;;;12.60;99.90;;;;;;4181569;28;20180;-92
2023/05/25 06:04:27;;;;;;;23.88;7.35;;;12.60;99.90;;;;;;4181620;28;20349;-92
2023/05/25 06:06:28;;;;;;;21.50;6.70;;;12.60;99.90;;;;;;4164961;28;20561;-89
2023/05/25 06:08:29;;;;;;;21.33;6.28;;;12.70;99.90;;;;;;4164993;28;20176;-92
2023/05/25 06:10:30;;;;;;;24.27;7.15;;;12.60;99.90;;;;;;4181033;28;20182;-93
2023/05/25 06:12:31;;;;;;;24.20;6.47;;;12.50;99.90;;;;;;4164833;28;20180;-89
2023/05/25 06:14:33;;;;;;;18.42;6.43;;;12.60;99.90;;;;;;4165238;28;20816;-92
2023/05/25 06:16:36;;;;;;;25.98;6.85;;;12.70;99.90;;;;;;4181113;28;20215;-94
2023/05/25 06:18:37;;;;;;;19.02;6.18;;;12.80;99.90;;;;;;4165014;28;20714;-88
2023/05/25 06:20:38;;;;;;;18.20;6.15;;;12.90;99.90;;;;;;4181437;28;20198;-92
2023/05/25 06:22:39;;;;;;;23.98;6.65;;;13.10;99.90;;;;;;4164881;28;20183;-89
2023/05/25 06:24:39;;;;;;;22.15;6.43;;;13.40;99.90;;;;;;4181235;28;20170;-90
2023/05/25 06:26:40;;;;;;;20.33;6.15;;;13.40;99.90;;;;;;4181377;28;20262;-93
2023/05/25 06:28:42;;;;;;;16.55;6.03;;;13.40;99.90;;;;;;4164818;28;20183;-93
2023/05/25 06:30:42;;;;;;;27.20;5.95;;;13.40;99.90;;;;;;4164813;28;20211;-89
2023/05/25 06:32:44;;;;;;;17.30;6.15;;;13.40;99.90;;;;;;4181313;28;20207;-90
2023/05/25 06:34:45;;;;;;;15.95;5.85;;;13.50;99.90;;;;;;4164432;28;20261;-93
2023/05/25 06:36:46;;;;;;;20.00;6.35;;;13.50;99.90;;;;;;4164532;28;20198;-90
2023/05/25 06:38:47;;;;;;;25.02;5.70;;;13.50;99.90;;;;;;4180988;28;20172;-90
2023/05/25 06:40:48;;;;;;;15.88;5.30;;;13.50;99.90;;;;;;4164628;28;20302;-92
2023/05/25 06:42:48;;;;;;;17.88;5.85;;;13.50;99.90;;;;;;4164658;28;20168;-95
2023/05/25 06:45:16;;;;;;;22.30;6.07;;;13.50;99.90;;;;;;4180373;28;20195;-88
2023/05/25 06:47:17;;;;;;;22.52;6.32;;;13.50;99.90;;;;;;4182109;28;20164;-94
2023/05/25 06:49:17;;;;;;;19.60;6.13;;;13.50;99.90;;;;;;4181139;28;20194;-92
2023/05/25 06:51:19;;;;;;;15.75;5.72;;;13.60;99.90;;;;;;4164371;28;20180;-88
2023/05/25 06:53:20;;;;;;;15.93;5.70;;;13.80;99.90;;;;;;4164564;28;20196;-93
2023/05/25 06:55:21;;;;;;;18.15;5.93;;;13.90;99.90;;;;;;4180737;28;20261;-89
2023/05/25 06:57:22;;;;;;;17.17;5.43;;;14.10;99.90;;;;;;4164342;28;20172;-89
2023/05/25 06:59:23;;;;;;;17.00;6.07;;;14.20;99.90;;;;;;4181387;28;20218;-93
2023/05/25 07:01:24;;;;;;;22.80;5.65;;;14.30;99.90;;;;;;4181146;28;20160;-94
2023/05/25 07:03:24;;;;;;;20.80;5.63;;;14.40;99.90;;;;;;4165825;28;20271;-94
2023/05/25 07:05:25;;;;;;;15.20;5.47;;;14.50;99.90;;;;;;4184233;28;20184;-90
2023/05/25 07:07:26;;;;;;;22.92;5.60;;;14.50;99.90;;;;;;4183897;28;20176;-90
2023/05/25 07:09:27;;;;;;;17.98;5.78;;;14.70;99.90;;;;;;4167778;28;20169;-89
2023/05/25 07:11:27;;;;;;;16.20;5.53;;;15.10;99.90;;;;;;4167915;28;20322;-89
2023/05/25 07:13:28;;;;;;;15.10;5.10;;;16.10;99.90;;;;;;4183950;28;20194;-94
2023/05/25 07:15:29;;;;;;;16.38;4.47;;;17.00;99.90;;;;;;4167244;28;20219;-94
2023/05/25 07:17:30;;;;;;;18.77;4.78;;;17.70;99.90;;;;;;4183858;28;20179;-89
2023/05/25 07:19:30;;;;;;;22.20;4.78;;;18.40;99.90;;;;;;4167326;28;20167;-92
2023/05/25 07:21:32;;;;;;;11.70;4.35;;;18.90;99.90;;;;;;4183949;28;20163;-90
2023/05/25 07:23:33;;;;;;;11.52;3.88;;;18.60;99.90;;;;;;4167437;28;20184;-91
2023/05/25 07:25:33;;;;;;;15.07;4.47;;;18.30;99.90;;;;;;4183655;28;20233;-93
2023/05/25 07:27:34;;;;;;;16.55;4.65;;;18.10;99.90;;;;;;4183524;28;20175;-93
2023/05/25 07:29:35;;;;;;;13.02;4.43;;;18.30;99.90;;;;;;4184041;28;20171;-91
2023/05/25 07:31:36;;;;;;;18.83;4.22;;;19.00;99.90;;;;;;4167401;28;20219;-92
2023/05/25 07:33:37;;;;;;;14.82;4.32;;;19.70;99.90;;;;;;4184071;28;20167;-93
2023/05/25 07:35:38;;;;;;;16.67;4.18;;;20.00;99.90;;;;;;4183537;28;20265;-93
2023/05/25 07:37:38;;;;;;;15.52;4.20;;;19.90;99.90;;;;;;4167165;28;20739;-92
2023/05/25 07:39:39;;;;;;;15.38;4.20;;;19.60;99.90;;;;;;4166846;28;20180;-89
2023/05/25 07:41:40;;;;;;;14.10;4.40;;;19.10;99.90;;;;;;4166986;28;20161;-94
2023/05/25 07:43:40;;;;;;;13.20;4.03;;;18.90;99.90;;;;;;4167227;28;20172;-93
2023/05/25 07:45:41;;;;;;;11.10;3.88;;;19.00;99.90;;;;;;4166924;28;20195;-93
2023/05/25 07:47:42;;;;;;;18.15;4.30;;;19.50;99.90;;;;;;4167021;28;20172;-92
2023/05/25 07:49:43;;;;;;;12.32;3.85;;;20.00;99.90;;;;;;4183086;28;20174;-89
2023/05/25 07:51:44;;;;;;;15.43;4.82;;;20.50;99.90;;;;;;4166600;28;20176;-93
2023/05/25 07:53:45;;;;;;;16.40;3.97;;;20.50;99.90;;;;;;4166943;28;20168;-95
2023/05/25 07:55:46;;;;;;;14.35;4.32;;;20.30;99.90;;;;;;4166809;28;20274;-94
2023/05/25 07:57:46;;;;;;;10.57;3.53;;;20.40;99.90;;;;;;4183269;28;20197;-90
2023/05/25 07:59:47;;;;;;;13.38;3.75;;;20.60;99.90;;;;;;4166958;28;20662;-95
2023/05/25 08:01:48;;;;;;;12.25;3.63;;;20.80;99.90;;;;;;4183148;28;20643;-93
2023/05/25 08:03:49;;;;;;;14.55;3.97;;;20.50;99.90;;;;;;4183283;28;20179;-93
2023/05/25 08:05:50;;;;;;;14.70;3.97;;;20.30;99.90;;;;;;4166724;28;20327;-93
2023/05/25 08:07:50;;;;;;;14.90;4.03;;;20.20;99.90;;;;;;4166681;28;20182;-90
2023/05/25 08:09:51;;;;;;;10.52;3.55;;;20.30;99.90;;;;;;4166593;28;20176;-92
2023/05/25 08:11:52;;;;;;;12.23;3.40;;;20.90;99.90;;;;;;4183206;28;20179;-89
2023/05/25 08:13:53;;;;;;;13.38;3.80;;;21.20;99.90;;;;;;4166841;28;20262;-90
2023/05/25 08:15:53;;;;;;;16.55;4.05;;;21.80;99.90;;;;;;4165641;28;20219;-92
2023/05/25 08:17:55;;;;;;;12.32;3.78;;;21.40;99.90;;;;;;4166762;28;20174;-93
2023/05/25 08:19:56;;;;;;;9.88;3.70;;;20.80;99.90;;;;;;4166736;28;20267;-93
2023/05/25 08:21:57;;;;;;;12.88;3.30;;;20.10;99.90;;;;;;4166537;28;20168;-89
2023/05/25 08:23:58;;;;;;;8.70;3.20;;;19.70;99.90;;;;;;4166516;28;20176;-90
2023/05/25 08:25:59;;;;;;;13.13;3.40;;;19.60;99.90;;;;;;4182951;28;20719;-90
2023/05/25 08:28:00;;;;;;;14.50;3.70;;;19.10;99.90;;;;;;4182835;28;20179;-92
2023/05/25 08:30:00;;;;;;;14.20;3.22;;;19.20;99.90;;;;;;4182855;28;20652;-94
2023/05/25 08:32:01;;;;;;;13.23;3.35;;;18.80;99.90;;;;;;4166250;28;20275;-90
2023/05/25 08:34:02;;;;;;;11.80;2.97;;;18.90;99.90;;;;;;4166121;28;20168;-93
2023/05/25 08:36:03;;;;;;;13.48;3.47;;;19.00;99.90;;;;;;4182678;28;20212;-93
2023/05/25 08:38:03;;;;;;;14.77;3.55;;;19.00;99.90;;;;;;4166076;28;20172;-95
2023/05/25 08:40:06;;;;;;;11.52;3.38;;;19.20;99.90;;;;;;4182887;28;20683;-94
2023/05/25 08:42:08;;;;;;;14.43;3.85;;;19.60;99.90;;;;;;4182452;28;20575;-90
2023/05/25 08:44:09;;;;;;;11.63;3.95;;;20.00;99.90;;;;;;4166267;28;20294;-90
2023/05/25 08:46:11;;;;;;;13.48;4.05;;;20.30;99.90;;;;;;4166242;28;20203;-89
2023/05/25 08:48:17;;;;;;;17.98;3.60;;;20.50;99.90;;;;;;4166114;28;20179;-91
2023/05/25 08:50:18;;;;;;;13.27;4.22;;;20.80;99.90;;;;;;4165789;28;20176;-95
2023/05/25 08:52:22;;;;;;;10.38;3.38;;;20.40;99.90;;;;;;4166156;28;20811;-93
2023/05/25 08:54:35;;;;;;;12.90;4.00;;;20.20;99.90;;;;;;4165991;28;20255;-95
2023/05/25 08:56:50;;;;;;;12.88;3.58;;;20.40;99.90;;;;;;4182371;28;20684;-91
2023/05/25 08:59:16;;;;;;;12.70;3.80;;;20.60;99.90;;;;;;4165962;28;20179;-90
2023/05/25 09:01:20;;;;;;;14.35;4.07;;;20.20;99.90;;;;;;4165858;28;20172;-90
2023/05/25 09:03:22;;;;;;;13.15;4.43;;;19.70;99.90;;;;;;4166074;28;20707;-90
2023/05/25 09:05:24;;;;;;;11.63;3.70;;;19.40;99.90;;;;;;4182435;28;20191;-95
2023/05/25 09:07:25;;;;;;;12.02;3.70;;;19.70;99.90;;;;;;4165557;28;20168;-94
2023/05/25 09:09:26;;;;;;;15.30;3.65;;;20.30;99.90;;;;;;4181973;28;20713;-92
2023/05/25 09:11:27;;;;;;;10.13;3.17;;;20.30;99.90;;;;;;4165718;28;20184;-94
2023/05/25 09:13:29;;;;;;;9.30;3.45;;;20.50;99.90;;;;;;4165755;28;20629;-91
2023/05/25 09:15:30;;;;;;;8.80;3.40;;;20.60;99.90;;;;;;4165714;28;20212;-89
2023/05/25 09:17:31;;;;;;;15.43;4.05;;;20.20;99.90;;;;;;4182363;28;20183;-90
2023/05/25 09:19:35;;;;;;;8.63;3.15;;;19.50;99.90;;;;;;4165545;28;20164;-94
2023/05/25 09:21:36;;;;;;;13.18;3.92;;;19.00;99.90;;;;;;4165735;28;20172;-94
2023/05/25 09:23:37;;;;;;;13.52;4.00;;;19.00;99.90;;;;;;4165918;28;20234;-91
2023/05/25 09:25:39;;;;;;;11.25;3.47;;;19.10;99.90;;;;;;4165376;28;20238;-93
2023/05/25 09:27:41;;;;;;;15.57;3.97;;;19.40;99.90;;;;;;4165624;28;20524;-93
2023/05/25 09:29:42;;;;;;;9.73;3.95;;;19.50;99.90;;;;;;4182109;28;20734;-93
2023/05/25 09:31:43;;;;;;;14.05;4.00;;;19.30;99.90;;;;;;4165767;28;20176;-95
2023/05/25 09:33:45;;;;;;;12.13;3.45;;;19.60;99.90;;;;;;4165636;28;20171;-92
2023/05/25 09:35:46;;;;;;;9.55;3.00;;;20.10;99.90;;;;;;4165095;28;20208;-93
2023/05/25 09:37:47;;;;;;;15.73;3.10;;;20.10;99.90;;;;;;4165078;28;20537;-90
2023/05/25 09:39:50;;;;;;;12.00;2.85;;;19.90;99.90;;;;;;4165564;28;20626;-90
2023/05/25 09:41:51;;;;;;;12.98;3.65;;;19.10;99.90;;;;;;4165477;28;20369;-90
2023/05/25 09:43:51;;;;;;;12.00;3.40;;;18.80;99.90;;;;;;4165126;28;20176;-93
2023/05/25 09:45:52;;;;;;;7.18;3.10;;;18.50;99.90;;;;;;4165071;28;20231;-94
2023/05/25 09:47:57;;;;;;;8.35;3.60;;;18.70;99.90;;;;;;4165089;28;20584;-91
2023/05/25 09:49:59;;;;;;;10.95;3.67;;;19.10;99.90;;;;;;4165278;28;20180;-90
2023/05/25 09:51:59;;;;;;;12.48;3.33;;;19.00;99.90;;;;;;4164914;28;20173;-88
2023/05/25 09:54:00;;;;;;;12.45;3.55;;;18.70;99.90;;;;;;4165176;28;20267;-93
2023/05/25 09:56:01;;;;;;;15.10;4.07;;;18.30;99.90;;;;;;4165105;28;20208;-90
2023/05/25 09:58:02;;;;;;;9.65;3.40;;;18.10;99.90;;;;;;4165008;28;20211;-89
2023/05/25 10:00:04;;;;;;;8.25;3.38;;;17.70;99.90;;;;;;4164818;28;20168;-90
2023/05/25 10:02:13;;;;;;;10.50;3.50;;;18.00;99.90;;;;;;4181279;28;20190;-93
2023/05/25 10:04:15;;;;;;;13.15;3.65;;;18.50;99.90;;;;;;4165013;28;20179;-89
2023/05/25 10:06:17;;;;;;;9.05;3.13;;;18.90;99.90;;;;;;4181413;28;20196;-94
2023/05/25 10:08:20;;;;;;;11.48;3.08;;;19.00;99.90;;;;;;4165053;28;20653;-93
2023/05/25 10:10:21;;;;;;;10.07;3.28;;;18.80;99.90;;;;;;4181490;28;20164;-93
2023/05/25 10:12:23;;;;;;;16.10;3.65;;;18.90;99.90;;;;;;4164811;28;20188;-89
2023/05/25 10:14:28;;;;;;;9.18;3.63;;;18.60;99.90;;;;;;4180999;28;20171;-93
2023/05/25 10:16:32;;;;;;;10.35;3.20;;;18.70;99.90;;;;;;4164835;28;20196;-92
2023/05/25 10:18:37;;;;;;;14.27;3.60;;;19.10;99.90;;;;;;4181287;28;20171;-89
2023/05/25 10:20:38;;;;;;;13.48;3.80;;;18.90;99.90;;;;;;4164663;28;20259;-93
2023/05/25 10:22:53;;;;;;;9.70;3.90;;;18.70;99.90;;;;;;4180860;28;20670;-89
2023/05/25 10:24:58;;;;;;;14.40;3.60;;;18.60;99.90;;;;;;4164942;28;20210;-91
2023/05/25 10:27:03;;;;;;;9.80;3.67;;;18.50;99.90;;;;;;4181304;28;20174;-92
2023/05/25 10:29:04;;;;;;;9.57;3.40;;;18.50;99.90;;;;;;4165017;28;20187;-89